sensor_id;sensor_type;location;lat;lon;timestamp;P1;durP1;ratioP1;P2;durP2;ratioP2
71290;SDS011;59073;51.994;4.448;2023-08-07T00:01:43;2.31;;;1.77;;
71290;SDS011;59073;51.994;4.448;2023-08-07T00:04:09;2.64;;;2.02;;
71290;SDS011;59073;51.994;4.448;2023-08-07T00:06:34;2.88;;;2.16;;
71290;SDS011;59073;51.994;4.448;2023-08-07T00:09:00;2.77;;;2.06;;
71290;SDS011;59073;51.994;4.448;2023-08-07T00:11:25;3.05;;;2.25;;
71290;SDS011;59073;51.994;4.448;2023-08-07T00:13:52;2.61;;;1.96;;
71290;SDS011;59073;51.994;4.448;2023-08-07T00:16:18;2.23;;;1.73;;
71290;SDS011;59073;51.994;4.448;2023-08-07T00:18:43;2.64;;;2.06;;
71290;SDS011;59073;51.994;4.448;2023-08-07T00:21:09;2.12;;;1.72;;
71290;SDS011;59073;51.994;4.448;2023-08-07T00:23:34;1.93;;;1.64;;
71290;SDS011;59073;51.994;4.448;2023-08-07T00:26:00;1.49;;;1.29;;
71290;SDS011;59073;51.994;4.448;2023-08-07T00:28:25;1.87;;;1.69;;
71290;SDS011;59073;51.994;4.448;2023-08-07T00:30:50;1.97;;;1.81;;
71290;SDS011;59073;51.994;4.448;2023-08-07T00:33:16;2.03;;;1.81;;
71290;SDS011;59073;51.994;4.448;2023-08-07T00:35:41;2.27;;;1.97;;
71290;SDS011;59073;51.994;4.448;2023-08-07T00:38:07;2.52;;;2.18;;
71290;SDS011;59073;51.994;4.448;2023-08-07T00:40:35;2.55;;;2.18;;
71290;SDS011;59073;51.994;4.448;2023-08-07T00:43:04;2.80;;;2.36;;
71290;SDS011;59073;51.994;4.448;2023-08-07T00:45:32;2.55;;;2.14;;
71290;SDS011;59073;51.994;4.448;2023-08-07T00:48:06;2.71;;;2.21;;
71290;SDS011;59073;51.994;4.448;2023-08-07T00:50:32;2.23;;;1.80;;
71290;SDS011;59073;51.994;4.448;2023-08-07T00:52:58;2.55;;;2.04;;
71290;SDS011;59073;51.994;4.448;2023-08-07T00:55:24;2.93;;;2.30;;
71290;SDS011;59073;51.994;4.448;2023-08-07T00:57:50;3.46;;;2.65;;
71290;SDS011;59073;51.994;4.448;2023-08-07T01:00:16;2.78;;;2.14;;
71290;SDS011;59073;51.994;4.448;2023-08-07T01:02:42;2.83;;;2.22;;
71290;SDS011;59073;51.994;4.448;2023-08-07T01:05:08;2.85;;;2.26;;
71290;SDS011;59073;51.994;4.448;2023-08-07T01:07:34;2.58;;;2.10;;
71290;SDS011;59073;51.994;4.448;2023-08-07T01:09:59;2.70;;;2.20;;
71290;SDS011;59073;51.994;4.448;2023-08-07T01:12:29;2.64;;;2.16;;
71290;SDS011;59073;51.994;4.448;2023-08-07T01:15:08;2.58;;;2.11;;
71290;SDS011;59073;51.994;4.448;2023-08-07T01:17:39;2.61;;;2.15;;
71290;SDS011;59073;51.994;4.448;2023-08-07T01:20:08;2.20;;;1.84;;
71290;SDS011;59073;51.994;4.448;2023-08-07T01:22:34;2.75;;;2.29;;
71290;SDS011;59073;51.994;4.448;2023-08-07T01:24:59;2.48;;;2.07;;
71290;SDS011;59073;51.994;4.448;2023-08-07T01:27:35;2.41;;;1.99;;
71290;SDS011;59073;51.994;4.448;2023-08-07T01:30:29;2.41;;;2.05;;
71290;SDS011;59073;51.994;4.448;2023-08-07T01:35:45;2.30;;;1.95;;
71290;SDS011;59073;51.994;4.448;2023-08-07T01:38:14;2.50;;;2.12;;
71290;SDS011;59073;51.994;4.448;2023-08-07T01:40:41;2.42;;;2.04;;
71290;SDS011;59073;51.994;4.448;2023-08-07T01:43:07;2.56;;;2.16;;
71290;SDS011;59073;51.994;4.448;2023-08-07T01:45:34;2.77;;;2.37;;
71290;SDS011;59073;51.994;4.448;2023-08-07T01:47:59;2.10;;;1.80;;
71290;SDS011;59073;51.994;4.448;2023-08-07T01:50:25;2.30;;;1.92;;
71290;SDS011;59073;51.994;4.448;2023-08-07T01:52:51;2.77;;;2.22;;
71290;SDS011;59073;51.994;4.448;2023-08-07T01:55:17;2.51;;;2.05;;
71290;SDS011;59073;51.994;4.448;2023-08-07T01:57:44;2.54;;;2.10;;
71290;SDS011;59073;51.994;4.448;2023-08-07T02:00:10;2.30;;;1.90;;
71290;SDS011;59073;51.994;4.448;2023-08-07T02:02:36;2.74;;;2.26;;
71290;SDS011;59073;51.994;4.448;2023-08-07T02:05:02;2.44;;;1.99;;
71290;SDS011;59073;51.994;4.448;2023-08-07T02:07:29;2.70;;;2.24;;
71290;SDS011;59073;51.994;4.448;2023-08-07T02:09:55;2.41;;;2.01;;
71290;SDS011;59073;51.994;4.448;2023-08-07T02:12:20;2.60;;;2.14;;
71290;SDS011;59073;51.994;4.448;2023-08-07T02:14:45;2.74;;;2.25;;
71290;SDS011;59073;51.994;4.448;2023-08-07T02:17:11;2.79;;;2.32;;
71290;SDS011;59073;51.994;4.448;2023-08-07T02:19:36;2.39;;;1.99;;
71290;SDS011;59073;51.994;4.448;2023-08-07T02:22:02;2.23;;;1.90;;
71290;SDS011;59073;51.994;4.448;2023-08-07T02:24:28;2.42;;;2.07;;
71290;SDS011;59073;51.994;4.448;2023-08-07T02:26:53;2.92;;;2.43;;
71290;SDS011;59073;51.994;4.448;2023-08-07T02:29:19;2.11;;;1.77;;
71290;SDS011;59073;51.994;4.448;2023-08-07T02:31:44;2.22;;;1.84;;
71290;SDS011;59073;51.994;4.448;2023-08-07T02:34:09;2.33;;;1.90;;
71290;SDS011;59073;51.994;4.448;2023-08-07T02:36:35;2.31;;;1.88;;
71290;SDS011;59073;51.994;4.448;2023-08-07T02:39:00;2.84;;;2.29;;
71290;SDS011;59073;51.994;4.448;2023-08-07T02:41:25;3.25;;;2.62;;
71290;SDS011;59073;51.994;4.448;2023-08-07T02:43:51;2.55;;;2.06;;
71290;SDS011;59073;51.994;4.448;2023-08-07T02:46:16;2.56;;;2.12;;
71290;SDS011;59073;51.994;4.448;2023-08-07T02:48:43;2.30;;;1.96;;
71290;SDS011;59073;51.994;4.448;2023-08-07T02:51:09;2.35;;;2.02;;
71290;SDS011;59073;51.994;4.448;2023-08-07T02:53:34;2.31;;;1.96;;
71290;SDS011;59073;51.994;4.448;2023-08-07T02:56:00;2.56;;;2.13;;
71290;SDS011;59073;51.994;4.448;2023-08-07T02:58:25;2.62;;;2.21;;
71290;SDS011;59073;51.994;4.448;2023-08-07T03:00:51;2.93;;;2.43;;
71290;SDS011;59073;51.994;4.448;2023-08-07T03:03:16;2.84;;;2.35;;
71290;SDS011;59073;51.994;4.448;2023-08-07T03:05:51;2.48;;;2.08;;
71290;SDS011;59073;51.994;4.448;2023-08-07T03:08:17;2.55;;;2.23;;
71290;SDS011;59073;51.994;4.448;2023-08-07T03:10:49;2.54;;;2.22;;
71290;SDS011;59073;51.994;4.448;2023-08-07T03:13:18;2.89;;;2.52;;
71290;SDS011;59073;51.994;4.448;2023-08-07T03:15:44;2.55;;;2.20;;
71290;SDS011;59073;51.994;4.448;2023-08-07T03:18:09;1.92;;;1.63;;
71290;SDS011;59073;51.994;4.448;2023-08-07T03:20:38;1.61;;;1.39;;
71290;SDS011;59073;51.994;4.448;2023-08-07T03:23:03;1.57;;;1.36;;
71290;SDS011;59073;51.994;4.448;2023-08-07T03:25:29;1.88;;;1.57;;
71290;SDS011;59073;51.994;4.448;2023-08-07T03:27:54;1.94;;;1.62;;
71290;SDS011;59073;51.994;4.448;2023-08-07T03:30:19;1.49;;;1.25;;
71290;SDS011;59073;51.994;4.448;2023-08-07T03:32:45;1.84;;;1.55;;
71290;SDS011;59073;51.994;4.448;2023-08-07T03:35:10;1.87;;;1.59;;
71290;SDS011;59073;51.994;4.448;2023-08-07T03:37:36;1.75;;;1.49;;
71290;SDS011;59073;51.994;4.448;2023-08-07T03:40:01;1.84;;;1.59;;
71290;SDS011;59073;51.994;4.448;2023-08-07T03:42:27;1.95;;;1.70;;
71290;SDS011;59073;51.994;4.448;2023-08-07T03:44:52;1.91;;;1.66;;
71290;SDS011;59073;51.994;4.448;2023-08-07T03:47:18;1.82;;;1.56;;
71290;SDS011;59073;51.994;4.448;2023-08-07T03:49:43;1.50;;;1.29;;
71290;SDS011;59073;51.994;4.448;2023-08-07T03:52:09;1.48;;;1.28;;
71290;SDS011;59073;51.994;4.448;2023-08-07T03:54:35;1.95;;;1.68;;
71290;SDS011;59073;51.994;4.448;2023-08-07T03:57:00;2.04;;;1.76;;
71290;SDS011;59073;51.994;4.448;2023-08-07T03:59:26;2.46;;;2.02;;
71290;SDS011;59073;51.994;4.448;2023-08-07T04:01:51;2.54;;;2.04;;
71290;SDS011;59073;51.994;4.448;2023-08-07T04:04:17;2.63;;;2.14;;
71290;SDS011;59073;51.994;4.448;2023-08-07T04:06:42;2.60;;;2.09;;
71290;SDS011;59073;51.994;4.448;2023-08-07T04:09:09;2.43;;;1.91;;
71290;SDS011;59073;51.994;4.448;2023-08-07T04:11:35;2.74;;;2.14;;
71290;SDS011;59073;51.994;4.448;2023-08-07T04:14:01;2.36;;;1.85;;
71290;SDS011;59073;51.994;4.448;2023-08-07T04:19:52;2.53;;;1.98;;
71290;SDS011;59073;51.994;4.448;2023-08-07T04:23:04;2.70;;;2.05;;
71290;SDS011;59073;51.994;4.448;2023-08-07T04:25:30;2.73;;;2.06;;
71290;SDS011;59073;51.994;4.448;2023-08-07T04:27:55;2.70;;;2.06;;
71290;SDS011;59073;51.994;4.448;2023-08-07T04:30:20;2.66;;;2.07;;
71290;SDS011;59073;51.994;4.448;2023-08-07T04:32:46;2.10;;;1.66;;
71290;SDS011;59073;51.994;4.448;2023-08-07T04:35:12;2.59;;;2.03;;
71290;SDS011;59073;51.994;4.448;2023-08-07T04:37:37;2.30;;;1.76;;
71290;SDS011;59073;51.994;4.448;2023-08-07T04:40:03;2.82;;;2.13;;
71290;SDS011;59073;51.994;4.448;2023-08-07T04:42:29;2.39;;;1.80;;
71290;SDS011;59073;51.994;4.448;2023-08-07T04:44:55;2.10;;;1.59;;
71290;SDS011;59073;51.994;4.448;2023-08-07T04:47:20;2.25;;;1.71;;
71290;SDS011;59073;51.994;4.448;2023-08-07T04:49:46;2.73;;;2.07;;
71290;SDS011;59073;51.994;4.448;2023-08-07T04:52:11;2.88;;;2.17;;
71290;SDS011;59073;51.994;4.448;2023-08-07T04:54:36;2.31;;;1.73;;
71290;SDS011;59073;51.994;4.448;2023-08-07T04:57:02;2.23;;;1.68;;
71290;SDS011;59073;51.994;4.448;2023-08-07T04:59:27;2.51;;;1.88;;
71290;SDS011;59073;51.994;4.448;2023-08-07T05:01:55;2.32;;;1.72;;
71290;SDS011;59073;51.994;4.448;2023-08-07T05:04:20;2.77;;;2.01;;
71290;SDS011;59073;51.994;4.448;2023-08-07T05:06:45;2.64;;;1.89;;
71290;SDS011;59073;51.994;4.448;2023-08-07T05:09:11;2.78;;;2.01;;
71290;SDS011;59073;51.994;4.448;2023-08-07T05:11:36;2.94;;;2.13;;
71290;SDS011;59073;51.994;4.448;2023-08-07T05:14:02;2.45;;;1.81;;
71290;SDS011;59073;51.994;4.448;2023-08-07T05:16:28;2.40;;;1.75;;
71290;SDS011;59073;51.994;4.448;2023-08-07T05:18:54;2.76;;;2.00;;
71290;SDS011;59073;51.994;4.448;2023-08-07T05:21:19;2.29;;;1.65;;
71290;SDS011;59073;51.994;4.448;2023-08-07T05:23:44;3.18;;;2.29;;
71290;SDS011;59073;51.994;4.448;2023-08-07T05:26:10;3.01;;;2.19;;
71290;SDS011;59073;51.994;4.448;2023-08-07T05:28:35;2.48;;;1.80;;
71290;SDS011;59073;51.994;4.448;2023-08-07T05:31:01;2.27;;;1.69;;
71290;SDS011;59073;51.994;4.448;2023-08-07T05:33:26;2.43;;;1.81;;
71290;SDS011;59073;51.994;4.448;2023-08-07T05:35:51;2.59;;;1.94;;
71290;SDS011;59073;51.994;4.448;2023-08-07T05:38:18;2.40;;;1.81;;
71290;SDS011;59073;51.994;4.448;2023-08-07T05:40:43;2.47;;;1.91;;
71290;SDS011;59073;51.994;4.448;2023-08-07T05:43:09;2.34;;;1.86;;
71290;SDS011;59073;51.994;4.448;2023-08-07T05:45:34;2.39;;;1.93;;
71290;SDS011;59073;51.994;4.448;2023-08-07T05:47:59;2.29;;;1.84;;
71290;SDS011;59073;51.994;4.448;2023-08-07T05:50:25;2.44;;;1.91;;
71290;SDS011;59073;51.994;4.448;2023-08-07T05:52:50;2.12;;;1.68;;
71290;SDS011;59073;51.994;4.448;2023-08-07T05:55:16;1.92;;;1.51;;
71290;SDS011;59073;51.994;4.448;2023-08-07T05:57:41;2.45;;;1.95;;
71290;SDS011;59073;51.994;4.448;2023-08-07T06:00:06;1.98;;;1.59;;
71290;SDS011;59073;51.994;4.448;2023-08-07T06:02:33;2.57;;;2.03;;
71290;SDS011;59073;51.994;4.448;2023-08-07T06:04:58;2.33;;;1.79;;
71290;SDS011;59073;51.994;4.448;2023-08-07T06:07:23;2.34;;;1.76;;
71290;SDS011;59073;51.994;4.448;2023-08-07T06:09:49;2.55;;;1.89;;
71290;SDS011;59073;51.994;4.448;2023-08-07T06:12:14;2.57;;;1.88;;
71290;SDS011;59073;51.994;4.448;2023-08-07T06:14:39;2.60;;;1.93;;
71290;SDS011;59073;51.994;4.448;2023-08-07T06:17:05;2.17;;;1.66;;
71290;SDS011;59073;51.994;4.448;2023-08-07T06:19:30;2.16;;;1.70;;
71290;SDS011;59073;51.994;4.448;2023-08-07T06:21:56;2.23;;;1.76;;
71290;SDS011;59073;51.994;4.448;2023-08-07T06:24:21;2.03;;;1.61;;
71290;SDS011;59073;51.994;4.448;2023-08-07T06:26:47;1.88;;;1.50;;
71290;SDS011;59073;51.994;4.448;2023-08-07T06:29:12;2.11;;;1.70;;
71290;SDS011;59073;51.994;4.448;2023-08-07T06:31:38;2.30;;;1.85;;
71290;SDS011;59073;51.994;4.448;2023-08-07T06:34:03;1.90;;;1.53;;
71290;SDS011;59073;51.994;4.448;2023-08-07T06:36:28;2.02;;;1.61;;
71290;SDS011;59073;51.994;4.448;2023-08-07T06:38:54;2.40;;;1.91;;
71290;SDS011;59073;51.994;4.448;2023-08-07T06:41:19;2.45;;;1.89;;
71290;SDS011;59073;51.994;4.448;2023-08-07T06:43:45;2.55;;;1.96;;
71290;SDS011;59073;51.994;4.448;2023-08-07T06:46:10;2.47;;;1.88;;
71290;SDS011;59073;51.994;4.448;2023-08-07T06:48:36;2.32;;;1.78;;
71290;SDS011;59073;51.994;4.448;2023-08-07T06:51:02;2.27;;;1.74;;
71290;SDS011;59073;51.994;4.448;2023-08-07T06:53:27;2.60;;;2.01;;
71290;SDS011;59073;51.994;4.448;2023-08-07T06:55:53;2.66;;;2.01;;
71290;SDS011;59073;51.994;4.448;2023-08-07T06:58:18;2.11;;;1.60;;
71290;SDS011;59073;51.994;4.448;2023-08-07T07:00:43;2.21;;;1.69;;
71290;SDS011;59073;51.994;4.448;2023-08-07T07:03:09;1.99;;;1.56;;
71290;SDS011;59073;51.994;4.448;2023-08-07T07:05:35;2.05;;;1.63;;
71290;SDS011;59073;51.994;4.448;2023-08-07T07:08:00;1.88;;;1.50;;
71290;SDS011;59073;51.994;4.448;2023-08-07T07:10:26;1.77;;;1.42;;
71290;SDS011;59073;51.994;4.448;2023-08-07T07:12:51;1.64;;;1.36;;
71290;SDS011;59073;51.994;4.448;2023-08-07T07:15:17;1.83;;;1.53;;
71290;SDS011;59073;51.994;4.448;2023-08-07T07:17:42;2.12;;;1.79;;
71290;SDS011;59073;51.994;4.448;2023-08-07T07:20:08;1.65;;;1.39;;
71290;SDS011;59073;51.994;4.448;2023-08-07T07:22:36;1.86;;;1.58;;
71290;SDS011;59073;51.994;4.448;2023-08-07T07:25:01;2.16;;;1.81;;
71290;SDS011;59073;51.994;4.448;2023-08-07T07:27:27;2.04;;;1.68;;
71290;SDS011;59073;51.994;4.448;2023-08-07T07:29:52;2.18;;;1.81;;
71290;SDS011;59073;51.994;4.448;2023-08-07T07:32:18;1.77;;;1.51;;
71290;SDS011;59073;51.994;4.448;2023-08-07T07:34:44;1.76;;;1.49;;
71290;SDS011;59073;51.994;4.448;2023-08-07T07:37:10;1.93;;;1.62;;
71290;SDS011;59073;51.994;4.448;2023-08-07T07:39:35;2.00;;;1.69;;
71290;SDS011;59073;51.994;4.448;2023-08-07T07:42:01;1.92;;;1.65;;
71290;SDS011;59073;51.994;4.448;2023-08-07T07:44:26;1.97;;;1.69;;
71290;SDS011;59073;51.994;4.448;2023-08-07T07:46:52;1.41;;;1.23;;
71290;SDS011;59073;51.994;4.448;2023-08-07T07:49:17;1.82;;;1.60;;
71290;SDS011;59073;51.994;4.448;2023-08-07T07:51:43;1.67;;;1.46;;
71290;SDS011;59073;51.994;4.448;2023-08-07T07:54:09;1.60;;;1.40;;
71290;SDS011;59073;51.994;4.448;2023-08-07T07:56:35;1.80;;;1.57;;
71290;SDS011;59073;51.994;4.448;2023-08-07T07:59:00;1.77;;;1.53;;
71290;SDS011;59073;51.994;4.448;2023-08-07T08:01:26;1.68;;;1.46;;
71290;SDS011;59073;51.994;4.448;2023-08-07T08:03:51;1.67;;;1.46;;
71290;SDS011;59073;51.994;4.448;2023-08-07T08:06:17;1.71;;;1.48;;
71290;SDS011;59073;51.994;4.448;2023-08-07T08:08:43;1.50;;;1.26;;
71290;SDS011;59073;51.994;4.448;2023-08-07T08:11:08;1.56;;;1.30;;
71290;SDS011;59073;51.994;4.448;2023-08-07T08:13:34;1.63;;;1.37;;
71290;SDS011;59073;51.994;4.448;2023-08-07T08:16:04;1.83;;;1.55;;
71290;SDS011;59073;51.994;4.448;2023-08-07T08:18:29;1.70;;;1.46;;
71290;SDS011;59073;51.994;4.448;2023-08-07T08:20:55;1.40;;;1.19;;
71290;SDS011;59073;51.994;4.448;2023-08-07T08:23:20;1.47;;;1.27;;
71290;SDS011;59073;51.994;4.448;2023-08-07T08:25:46;1.51;;;1.32;;
71290;SDS011;59073;51.994;4.448;2023-08-07T08:28:11;1.62;;;1.42;;
71290;SDS011;59073;51.994;4.448;2023-08-07T08:30:36;1.25;;;1.09;;
71290;SDS011;59073;51.994;4.448;2023-08-07T08:33:02;1.48;;;1.31;;
71290;SDS011;59073;51.994;4.448;2023-08-07T08:35:27;1.52;;;1.34;;
71290;SDS011;59073;51.994;4.448;2023-08-07T08:37:53;1.64;;;1.43;;
71290;SDS011;59073;51.994;4.448;2023-08-07T08:40:18;1.41;;;1.20;;
71290;SDS011;59073;51.994;4.448;2023-08-07T08:42:44;1.76;;;1.48;;
71290;SDS011;59073;51.994;4.448;2023-08-07T08:45:11;1.46;;;1.24;;
71290;SDS011;59073;51.994;4.448;2023-08-07T08:47:39;1.76;;;1.49;;
71290;SDS011;59073;51.994;4.448;2023-08-07T08:50:10;1.54;;;1.31;;
71290;SDS011;59073;51.994;4.448;2023-08-07T08:52:40;1.59;;;1.39;;
71290;SDS011;59073;51.994;4.448;2023-08-07T08:55:09;1.31;;;1.15;;
71290;SDS011;59073;51.994;4.448;2023-08-07T08:57:35;1.44;;;1.26;;
71290;SDS011;59073;51.994;4.448;2023-08-07T09:00:01;1.30;;;1.12;;
71290;SDS011;59073;51.994;4.448;2023-08-07T09:02:32;1.23;;;1.06;;
71290;SDS011;59073;51.994;4.448;2023-08-07T09:04:58;1.41;;;1.23;;
71290;SDS011;59073;51.994;4.448;2023-08-07T09:07:23;1.22;;;1.06;;
71290;SDS011;59073;51.994;4.448;2023-08-07T09:09:51;1.43;;;1.25;;
71290;SDS011;59073;51.994;4.448;2023-08-07T09:12:23;1.62;;;1.42;;
71290;SDS011;59073;51.994;4.448;2023-08-07T09:14:54;1.42;;;1.26;;
71290;SDS011;59073;51.994;4.448;2023-08-07T09:17:23;1.17;;;1.03;;
71290;SDS011;59073;51.994;4.448;2023-08-07T09:19:52;1.65;;;1.45;;
71290;SDS011;59073;51.994;4.448;2023-08-07T09:22:18;1.41;;;1.26;;
71290;SDS011;59073;51.994;4.448;2023-08-07T09:24:45;1.34;;;1.20;;
71290;SDS011;59073;51.994;4.448;2023-08-07T09:27:11;1.51;;;1.34;;
71290;SDS011;59073;51.994;4.448;2023-08-07T09:29:38;1.60;;;1.43;;
71290;SDS011;59073;51.994;4.448;2023-08-07T09:32:14;1.57;;;1.40;;
71290;SDS011;59073;51.994;4.448;2023-08-07T09:34:40;1.48;;;1.31;;
71290;SDS011;59073;51.994;4.448;2023-08-07T09:37:09;1.25;;;1.12;;
71290;SDS011;59073;51.994;4.448;2023-08-07T09:39:37;1.43;;;1.29;;
71290;SDS011;59073;51.994;4.448;2023-08-07T09:42:03;1.40;;;1.27;;
71290;SDS011;59073;51.994;4.448;2023-08-07T09:44:35;1.25;;;1.10;;
71290;SDS011;59073;51.994;4.448;2023-08-07T09:47:10;1.19;;;1.05;;
71290;SDS011;59073;51.994;4.448;2023-08-07T09:49:37;1.40;;;1.26;;
71290;SDS011;59073;51.994;4.448;2023-08-07T09:52:05;1.35;;;1.22;;
71290;SDS011;59073;51.994;4.448;2023-08-07T09:54:32;1.13;;;1.04;;
71290;SDS011;59073;51.994;4.448;2023-08-07T09:57:06;1.39;;;1.27;;
71290;SDS011;59073;51.994;4.448;2023-08-07T09:59:33;1.50;;;1.35;;
71290;SDS011;59073;51.994;4.448;2023-08-07T10:02:00;1.37;;;1.24;;
71290;SDS011;59073;51.994;4.448;2023-08-07T10:04:27;1.08;;;0.98;;
71290;SDS011;59073;51.994;4.448;2023-08-07T10:06:53;1.42;;;1.28;;
71290;SDS011;59073;51.994;4.448;2023-08-07T10:09:18;1.43;;;1.29;;
71290;SDS011;59073;51.994;4.448;2023-08-07T10:11:45;1.22;;;1.10;;
71290;SDS011;59073;51.994;4.448;2023-08-07T10:14:12;1.20;;;1.05;;
71290;SDS011;59073;51.994;4.448;2023-08-07T10:16:39;1.63;;;1.45;;
71290;SDS011;59073;51.994;4.448;2023-08-07T10:19:06;1.40;;;1.24;;
71290;SDS011;59073;51.994;4.448;2023-08-07T10:21:38;1.24;;;1.10;;
71290;SDS011;59073;51.994;4.448;2023-08-07T10:24:05;1.19;;;1.08;;
71290;SDS011;59073;51.994;4.448;2023-08-07T10:26:33;1.18;;;1.06;;
71290;SDS011;59073;51.994;4.448;2023-08-07T10:29:00;1.24;;;1.10;;
71290;SDS011;59073;51.994;4.448;2023-08-07T10:31:31;1.20;;;1.07;;
71290;SDS011;59073;51.994;4.448;2023-08-07T10:34:00;0.90;;;0.81;;
71290;SDS011;59073;51.994;4.448;2023-08-07T10:36:33;1.10;;;0.99;;
71290;SDS011;59073;51.994;4.448;2023-08-07T10:39:10;1.44;;;1.32;;
71290;SDS011;59073;51.994;4.448;2023-08-07T10:41:46;1.21;;;1.09;;
71290;SDS011;59073;51.994;4.448;2023-08-07T10:44:32;1.16;;;1.04;;
71290;SDS011;59073;51.994;4.448;2023-08-07T10:47:13;1.24;;;1.13;;
71290;SDS011;59073;51.994;4.448;2023-08-07T10:49:40;1.28;;;1.17;;
71290;SDS011;59073;51.994;4.448;2023-08-07T10:52:09;1.14;;;1.04;;
71290;SDS011;59073;51.994;4.448;2023-08-07T10:54:40;1.24;;;1.15;;
71290;SDS011;59073;51.994;4.448;2023-08-07T10:57:13;1.25;;;1.18;;
71290;SDS011;59073;51.994;4.448;2023-08-07T10:59:44;1.12;;;1.05;;
71290;SDS011;59073;51.994;4.448;2023-08-07T11:02:22;1.22;;;1.15;;
71290;SDS011;59073;51.994;4.448;2023-08-07T11:04:52;1.36;;;1.27;;
71290;SDS011;59073;51.994;4.448;2023-08-07T11:10:40;1.13;;;1.06;;
71290;SDS011;59073;51.994;4.448;2023-08-07T11:13:06;1.01;;;0.95;;
71290;SDS011;59073;51.994;4.448;2023-08-07T11:15:31;1.12;;;1.06;;
71290;SDS011;59073;51.994;4.448;2023-08-07T11:17:56;1.25;;;1.18;;
71290;SDS011;59073;51.994;4.448;2023-08-07T11:20:22;1.17;;;1.12;;
71290;SDS011;59073;51.994;4.448;2023-08-07T11:22:47;1.56;;;1.48;;
71290;SDS011;59073;51.994;4.448;2023-08-07T11:25:13;1.53;;;1.45;;
71290;SDS011;59073;51.994;4.448;2023-08-07T11:27:42;1.35;;;1.28;;
71290;SDS011;59073;51.994;4.448;2023-08-07T11:30:10;1.26;;;1.20;;
71290;SDS011;59073;51.994;4.448;2023-08-07T11:32:36;1.28;;;1.22;;
71290;SDS011;59073;51.994;4.448;2023-08-07T11:35:02;1.23;;;1.18;;
71290;SDS011;59073;51.994;4.448;2023-08-07T11:37:30;1.52;;;1.44;;
71290;SDS011;59073;51.994;4.448;2023-08-07T11:39:59;1.33;;;1.27;;
71290;SDS011;59073;51.994;4.448;2023-08-07T11:42:27;1.43;;;1.36;;
71290;SDS011;59073;51.994;4.448;2023-08-07T11:44:52;1.37;;;1.30;;
71290;SDS011;59073;51.994;4.448;2023-08-07T11:47:18;1.48;;;1.39;;
71290;SDS011;59073;51.994;4.448;2023-08-07T11:49:44;1.65;;;1.56;;
71290;SDS011;59073;51.994;4.448;2023-08-07T11:52:09;1.72;;;1.62;;
71290;SDS011;59073;51.994;4.448;2023-08-07T11:54:35;1.72;;;1.62;;
71290;SDS011;59073;51.994;4.448;2023-08-07T11:57:01;1.39;;;1.31;;
71290;SDS011;59073;51.994;4.448;2023-08-07T11:59:26;1.47;;;1.40;;
71290;SDS011;59073;51.994;4.448;2023-08-07T12:01:52;1.28;;;1.24;;
71290;SDS011;59073;51.994;4.448;2023-08-07T12:04:17;1.53;;;1.48;;
71290;SDS011;59073;51.994;4.448;2023-08-07T12:06:53;1.45;;;1.41;;
71290;SDS011;59073;51.994;4.448;2023-08-07T12:09:19;1.59;;;1.54;;
71290;SDS011;59073;51.994;4.448;2023-08-07T12:11:46;1.93;;;1.84;;
71290;SDS011;59073;51.994;4.448;2023-08-07T12:14:14;1.67;;;1.59;;
71290;SDS011;59073;51.994;4.448;2023-08-07T12:16:43;1.49;;;1.44;;
71290;SDS011;59073;51.994;4.448;2023-08-07T12:19:10;1.45;;;1.40;;
71290;SDS011;59073;51.994;4.448;2023-08-07T12:21:36;1.54;;;1.48;;
71290;SDS011;59073;51.994;4.448;2023-08-07T12:24:01;1.51;;;1.45;;
71290;SDS011;59073;51.994;4.448;2023-08-07T12:26:27;1.48;;;1.43;;
71290;SDS011;59073;51.994;4.448;2023-08-07T12:28:52;1.84;;;1.79;;
71290;SDS011;59073;51.994;4.448;2023-08-07T12:31:18;1.72;;;1.67;;
71290;SDS011;59073;51.994;4.448;2023-08-07T12:33:44;1.89;;;1.84;;
71290;SDS011;59073;51.994;4.448;2023-08-07T12:36:09;1.72;;;1.69;;
71290;SDS011;59073;51.994;4.448;2023-08-07T12:38:35;1.49;;;1.45;;
71290;SDS011;59073;51.994;4.448;2023-08-07T12:41:01;1.56;;;1.51;;
71290;SDS011;59073;51.994;4.448;2023-08-07T12:43:28;1.65;;;1.62;;
71290;SDS011;59073;51.994;4.448;2023-08-07T12:45:53;1.47;;;1.45;;
71290;SDS011;59073;51.994;4.448;2023-08-07T12:48:19;1.36;;;1.34;;
71290;SDS011;59073;51.994;4.448;2023-08-07T12:50:45;1.53;;;1.50;;
71290;SDS011;59073;51.994;4.448;2023-08-07T12:53:11;1.26;;;1.25;;
71290;SDS011;59073;51.994;4.448;2023-08-07T12:55:36;1.74;;;1.74;;
71290;SDS011;59073;51.994;4.448;2023-08-07T12:58:01;1.55;;;1.55;;
71290;SDS011;59073;51.994;4.448;2023-08-07T13:00:27;1.76;;;1.75;;
71290;SDS011;59073;51.994;4.448;2023-08-07T13:02:52;1.81;;;1.77;;
71290;SDS011;59073;51.994;4.448;2023-08-07T13:05:19;1.67;;;1.64;;
71290;SDS011;59073;51.994;4.448;2023-08-07T13:07:46;1.60;;;1.58;;
71290;SDS011;59073;51.994;4.448;2023-08-07T13:10:13;2.03;;;2.00;;
71290;SDS011;59073;51.994;4.448;2023-08-07T13:12:41;1.70;;;1.70;;
71290;SDS011;59073;51.994;4.448;2023-08-07T13:15:09;1.68;;;1.66;;
71290;SDS011;59073;51.994;4.448;2023-08-07T13:17:38;1.63;;;1.61;;
71290;SDS011;59073;51.994;4.448;2023-08-07T13:20:04;1.68;;;1.67;;
71290;SDS011;59073;51.994;4.448;2023-08-07T13:22:42;1.49;;;1.48;;
71290;SDS011;59073;51.994;4.448;2023-08-07T13:25:10;1.54;;;1.52;;
71290;SDS011;59073;51.994;4.448;2023-08-07T13:27:37;1.31;;;1.30;;
71290;SDS011;59073;51.994;4.448;2023-08-07T13:30:03;1.43;;;1.42;;
71290;SDS011;59073;51.994;4.448;2023-08-07T13:32:29;1.59;;;1.58;;
71290;SDS011;59073;51.994;4.448;2023-08-07T13:34:55;1.40;;;1.39;;
71290;SDS011;59073;51.994;4.448;2023-08-07T13:37:21;1.38;;;1.37;;
71290;SDS011;59073;51.994;4.448;2023-08-07T13:39:46;1.52;;;1.52;;
71290;SDS011;59073;51.994;4.448;2023-08-07T13:42:14;1.48;;;1.48;;
71290;SDS011;59073;51.994;4.448;2023-08-07T13:44:40;1.20;;;1.20;;
71290;SDS011;59073;51.994;4.448;2023-08-07T13:47:05;1.17;;;1.17;;
71290;SDS011;59073;51.994;4.448;2023-08-07T13:49:31;1.21;;;1.21;;
71290;SDS011;59073;51.994;4.448;2023-08-07T13:51:57;1.42;;;1.42;;
71290;SDS011;59073;51.994;4.448;2023-08-07T13:54:22;1.21;;;1.21;;
71290;SDS011;59073;51.994;4.448;2023-08-07T13:56:48;1.17;;;1.17;;
71290;SDS011;59073;51.994;4.448;2023-08-07T13:59:14;1.14;;;1.14;;
71290;SDS011;59073;51.994;4.448;2023-08-07T14:01:39;1.10;;;1.10;;
71290;SDS011;59073;51.994;4.448;2023-08-07T14:04:04;1.26;;;1.26;;
71290;SDS011;59073;51.994;4.448;2023-08-07T14:06:30;1.53;;;1.53;;
71290;SDS011;59073;51.994;4.448;2023-08-07T14:08:55;1.18;;;1.18;;
71290;SDS011;59073;51.994;4.448;2023-08-07T14:11:21;1.19;;;1.18;;
71290;SDS011;59073;51.994;4.448;2023-08-07T14:13:49;1.14;;;1.14;;
71290;SDS011;59073;51.994;4.448;2023-08-07T14:16:15;1.30;;;1.30;;
71290;SDS011;59073;51.994;4.448;2023-08-07T14:18:40;1.21;;;1.21;;
71290;SDS011;59073;51.994;4.448;2023-08-07T14:21:06;1.21;;;1.21;;
71290;SDS011;59073;51.994;4.448;2023-08-07T14:23:31;1.25;;;1.25;;
71290;SDS011;59073;51.994;4.448;2023-08-07T14:25:56;1.16;;;1.16;;
71290;SDS011;59073;51.994;4.448;2023-08-07T14:28:22;1.16;;;1.16;;
71290;SDS011;59073;51.994;4.448;2023-08-07T14:30:47;0.95;;;0.95;;
71290;SDS011;59073;51.994;4.448;2023-08-07T14:33:13;1.12;;;1.12;;
71290;SDS011;59073;51.994;4.448;2023-08-07T14:35:38;1.29;;;1.29;;
71290;SDS011;59073;51.994;4.448;2023-08-07T14:38:04;1.25;;;1.25;;
71290;SDS011;59073;51.994;4.448;2023-08-07T14:40:29;1.09;;;1.09;;
71290;SDS011;59073;51.994;4.448;2023-08-07T14:42:55;0.98;;;0.98;;
71290;SDS011;59073;51.994;4.448;2023-08-07T14:45:21;0.98;;;0.98;;
71290;SDS011;59073;51.994;4.448;2023-08-07T14:47:48;1.02;;;1.02;;
71290;SDS011;59073;51.994;4.448;2023-08-07T14:50:13;1.10;;;1.10;;
71290;SDS011;59073;51.994;4.448;2023-08-07T14:52:40;0.94;;;0.94;;
71290;SDS011;59073;51.994;4.448;2023-08-07T14:55:06;1.24;;;1.24;;